sensor_id;sensor_type;location;lat;lon;timestamp;P1;durP1;ratioP1;P2;durP2;ratioP2
64938;SDS011;51453;47.738;7.420;2023-05-20T00:01:36;8.98;;;4.60;;
64938;SDS011;51453;47.738;7.420;2023-05-20T00:04:02;11.18;;;4.57;;
64938;SDS011;51453;47.738;7.420;2023-05-20T00:06:28;6.75;;;4.05;;
64938;SDS011;51453;47.738;7.420;2023-05-20T00:08:54;8.65;;;4.47;;
64938;SDS011;51453;47.738;7.420;2023-05-20T00:11:20;11.57;;;4.90;;
64938;SDS011;51453;47.738;7.420;2023-05-20T00:13:46;8.65;;;4.78;;
64938;SDS011;51453;47.738;7.420;2023-05-20T00:16:11;9.73;;;4.53;;
64938;SDS011;51453;47.738;7.420;2023-05-20T00:18:37;8.85;;;4.35;;
64938;SDS011;51453;47.738;7.420;2023-05-20T00:21:02;13.13;;;4.30;;
64938;SDS011;51453;47.738;7.420;2023-05-20T00:23:28;9.60;;;4.45;;
64938;SDS011;51453;47.738;7.420;2023-05-20T00:25:54;10.77;;;4.78;;
64938;SDS011;51453;47.738;7.420;2023-05-20T00:28:19;9.25;;;4.07;;
64938;SDS011;51453;47.738;7.420;2023-05-20T00:30:47;7.20;;;4.03;;
64938;SDS011;51453;47.738;7.420;2023-05-20T00:33:12;11.25;;;4.70;;
64938;SDS011;51453;47.738;7.420;2023-05-20T00:35:38;9.48;;;4.45;;
64938;SDS011;51453;47.738;7.420;2023-05-20T00:38:03;8.00;;;3.92;;
64938;SDS011;51453;47.738;7.420;2023-05-20T00:40:29;8.85;;;4.35;;
64938;SDS011;51453;47.738;7.420;2023-05-20T00:42:55;8.52;;;4.28;;
64938;SDS011;51453;47.738;7.420;2023-05-20T00:45:21;11.35;;;4.50;;
64938;SDS011;51453;47.738;7.420;2023-05-20T00:47:47;7.68;;;4.43;;
64938;SDS011;51453;47.738;7.420;2023-05-20T00:50:13;11.32;;;4.50;;
64938;SDS011;51453;47.738;7.420;2023-05-20T00:52:38;6.28;;;3.85;;
64938;SDS011;51453;47.738;7.420;2023-05-20T00:55:07;10.85;;;4.05;;
64938;SDS011;51453;47.738;7.420;2023-05-20T00:57:33;6.82;;;3.90;;
64938;SDS011;51453;47.738;7.420;2023-05-20T00:59:59;8.57;;;3.88;;
64938;SDS011;51453;47.738;7.420;2023-05-20T01:02:25;7.38;;;4.38;;
64938;SDS011;51453;47.738;7.420;2023-05-20T01:04:51;8.43;;;4.30;;
64938;SDS011;51453;47.738;7.420;2023-05-20T01:07:17;10.13;;;4.28;;
64938;SDS011;51453;47.738;7.420;2023-05-20T01:09:43;9.35;;;4.47;;
64938;SDS011;51453;47.738;7.420;2023-05-20T01:12:24;12.07;;;4.40;;
64938;SDS011;51453;47.738;7.420;2023-05-20T01:14:55;11.10;;;4.30;;
64938;SDS011;51453;47.738;7.420;2023-05-20T01:17:32;8.77;;;4.13;;
64938;SDS011;51453;47.738;7.420;2023-05-20T01:20:03;11.32;;;4.45;;
64938;SDS011;51453;47.738;7.420;2023-05-20T01:22:31;7.95;;;4.40;;
64938;SDS011;51453;47.738;7.420;2023-05-20T01:24:57;10.77;;;4.70;;
64938;SDS011;51453;47.738;7.420;2023-05-20T01:27:22;9.45;;;4.80;;
64938;SDS011;51453;47.738;7.420;2023-05-20T01:29:49;11.68;;;4.80;;
64938;SDS011;51453;47.738;7.420;2023-05-20T01:32:18;9.63;;;4.53;;
64938;SDS011;51453;47.738;7.420;2023-05-20T01:34:44;9.00;;;4.78;;
64938;SDS011;51453;47.738;7.420;2023-05-20T01:37:16;9.65;;;5.07;;
64938;SDS011;51453;47.738;7.420;2023-05-20T01:39:46;13.43;;;5.10;;
64938;SDS011;51453;47.738;7.420;2023-05-20T01:42:14;10.77;;;4.90;;
64938;SDS011;51453;47.738;7.420;2023-05-20T01:44:41;9.45;;;5.00;;
64938;SDS011;51453;47.738;7.420;2023-05-20T01:47:06;11.88;;;4.88;;
64938;SDS011;51453;47.738;7.420;2023-05-20T01:49:32;12.57;;;5.05;;
64938;SDS011;51453;47.738;7.420;2023-05-20T01:51:58;11.20;;;4.93;;
64938;SDS011;51453;47.738;7.420;2023-05-20T01:54:23;10.98;;;5.10;;
64938;SDS011;51453;47.738;7.420;2023-05-20T01:56:49;8.70;;;4.88;;
64938;SDS011;51453;47.738;7.420;2023-05-20T01:59:15;9.20;;;5.53;;
64938;SDS011;51453;47.738;7.420;2023-05-20T02:01:41;13.00;;;5.53;;
64938;SDS011;51453;47.738;7.420;2023-05-20T02:04:07;11.90;;;4.95;;
64938;SDS011;51453;47.738;7.420;2023-05-20T02:06:32;7.45;;;4.95;;
64938;SDS011;51453;47.738;7.420;2023-05-20T02:08:58;10.50;;;4.63;;
64938;SDS011;51453;47.738;7.420;2023-05-20T02:11:24;7.63;;;5.03;;
64938;SDS011;51453;47.738;7.420;2023-05-20T02:13:50;7.78;;;4.97;;
64938;SDS011;51453;47.738;7.420;2023-05-20T02:16:16;7.75;;;4.75;;
64938;SDS011;51453;47.738;7.420;2023-05-20T02:18:42;11.98;;;5.30;;
64938;SDS011;51453;47.738;7.420;2023-05-20T02:21:08;10.43;;;4.65;;
64938;SDS011;51453;47.738;7.420;2023-05-20T02:23:33;12.27;;;5.68;;
64938;SDS011;51453;47.738;7.420;2023-05-20T02:26:00;9.05;;;5.43;;
64938;SDS011;51453;47.738;7.420;2023-05-20T02:28:26;12.93;;;4.90;;
64938;SDS011;51453;47.738;7.420;2023-05-20T02:30:51;10.50;;;5.35;;
64938;SDS011;51453;47.738;7.420;2023-05-20T02:33:17;13.88;;;5.65;;
64938;SDS011;51453;47.738;7.420;2023-05-20T02:35:44;8.20;;;4.95;;
64938;SDS011;51453;47.738;7.420;2023-05-20T02:38:10;11.50;;;5.18;;
64938;SDS011;51453;47.738;7.420;2023-05-20T02:40:36;8.02;;;4.90;;
64938;SDS011;51453;47.738;7.420;2023-05-20T02:43:02;7.28;;;5.00;;
64938;SDS011;51453;47.738;7.420;2023-05-20T02:45:27;9.75;;;5.22;;
64938;SDS011;51453;47.738;7.420;2023-05-20T02:47:53;7.63;;;4.82;;
64938;SDS011;51453;47.738;7.420;2023-05-20T02:50:19;10.32;;;5.70;;
64938;SDS011;51453;47.738;7.420;2023-05-20T02:52:44;12.57;;;5.18;;
64938;SDS011;51453;47.738;7.420;2023-05-20T02:55:11;13.30;;;5.30;;
64938;SDS011;51453;47.738;7.420;2023-05-20T02:57:37;10.50;;;5.28;;
64938;SDS011;51453;47.738;7.420;2023-05-20T03:00:03;9.50;;;5.45;;
64938;SDS011;51453;47.738;7.420;2023-05-20T03:02:31;10.73;;;5.05;;
64938;SDS011;51453;47.738;7.420;2023-05-20T03:04:57;9.65;;;5.07;;
64938;SDS011;51453;47.738;7.420;2023-05-20T03:07:22;7.20;;;5.28;;
64938;SDS011;51453;47.738;7.420;2023-05-20T03:09:48;12.27;;;6.05;;
64938;SDS011;51453;47.738;7.420;2023-05-20T03:12:14;11.55;;;5.47;;
64938;SDS011;51453;47.738;7.420;2023-05-20T03:14:40;11.10;;;6.03;;
64938;SDS011;51453;47.738;7.420;2023-05-20T03:17:06;13.10;;;6.00;;
64938;SDS011;51453;47.738;7.420;2023-05-20T03:19:32;12.52;;;6.25;;
64938;SDS011;51453;47.738;7.420;2023-05-20T03:21:57;12.57;;;6.32;;
64938;SDS011;51453;47.738;7.420;2023-05-20T03:24:25;14.15;;;6.60;;
64938;SDS011;51453;47.738;7.420;2023-05-20T03:26:51;12.25;;;5.93;;
64938;SDS011;51453;47.738;7.420;2023-05-20T03:29:17;13.55;;;5.90;;
64938;SDS011;51453;47.738;7.420;2023-05-20T03:31:42;9.63;;;6.05;;
64938;SDS011;51453;47.738;7.420;2023-05-20T03:34:08;10.90;;;6.00;;
64938;SDS011;51453;47.738;7.420;2023-05-20T03:36:34;13.75;;;6.25;;
64938;SDS011;51453;47.738;7.420;2023-05-20T03:39:00;12.57;;;5.63;;
64938;SDS011;51453;47.738;7.420;2023-05-20T03:41:28;9.85;;;5.57;;
64938;SDS011;51453;47.738;7.420;2023-05-20T03:43:54;10.88;;;5.60;;
64938;SDS011;51453;47.738;7.420;2023-05-20T03:46:19;10.02;;;5.10;;
64938;SDS011;51453;47.738;7.420;2023-05-20T03:48:45;9.25;;;5.45;;
64938;SDS011;51453;47.738;7.420;2023-05-20T03:51:11;11.45;;;5.30;;
64938;SDS011;51453;47.738;7.420;2023-05-20T03:53:36;10.10;;;4.80;;
64938;SDS011;51453;47.738;7.420;2023-05-20T03:56:02;9.55;;;5.20;;
64938;SDS011;51453;47.738;7.420;2023-05-20T03:58:28;8.05;;;4.65;;
64938;SDS011;51453;47.738;7.420;2023-05-20T04:00:55;10.63;;;5.13;;
64938;SDS011;51453;47.738;7.420;2023-05-20T04:03:21;10.48;;;4.85;;
64938;SDS011;51453;47.738;7.420;2023-05-20T04:05:47;9.35;;;4.75;;
64938;SDS011;51453;47.738;7.420;2023-05-20T04:08:13;11.65;;;5.13;;
64938;SDS011;51453;47.738;7.420;2023-05-20T04:10:42;7.10;;;4.95;;
64938;SDS011;51453;47.738;7.420;2023-05-20T04:13:07;12.60;;;4.80;;
64938;SDS011;51453;47.738;7.420;2023-05-20T04:15:35;11.45;;;5.00;;
64938;SDS011;51453;47.738;7.420;2023-05-20T04:18:01;10.43;;;5.15;;
64938;SDS011;51453;47.738;7.420;2023-05-20T04:20:26;9.23;;;5.00;;
64938;SDS011;51453;47.738;7.420;2023-05-20T04:22:52;8.77;;;4.60;;
64938;SDS011;51453;47.738;7.420;2023-05-20T04:25:19;9.60;;;4.50;;
64938;SDS011;51453;47.738;7.420;2023-05-20T04:27:45;9.18;;;4.25;;
64938;SDS011;51453;47.738;7.420;2023-05-20T04:30:11;7.88;;;4.70;;
64938;SDS011;51453;47.738;7.420;2023-05-20T04:32:36;8.48;;;4.25;;
64938;SDS011;51453;47.738;7.420;2023-05-20T04:35:02;7.68;;;4.38;;
64938;SDS011;51453;47.738;7.420;2023-05-20T04:37:32;5.78;;;4.07;;
64938;SDS011;51453;47.738;7.420;2023-05-20T04:39:59;6.45;;;4.20;;
64938;SDS011;51453;47.738;7.420;2023-05-20T04:42:27;7.43;;;4.25;;
64938;SDS011;51453;47.738;7.420;2023-05-20T04:44:53;8.43;;;4.15;;
64938;SDS011;51453;47.738;7.420;2023-05-20T04:47:19;9.07;;;4.07;;
64938;SDS011;51453;47.738;7.420;2023-05-20T04:49:45;7.13;;;4.28;;
64938;SDS011;51453;47.738;7.420;2023-05-20T04:52:10;6.38;;;3.92;;
64938;SDS011;51453;47.738;7.420;2023-05-20T04:54:36;8.75;;;4.22;;
64938;SDS011;51453;47.738;7.420;2023-05-20T04:57:02;9.05;;;4.20;;
64938;SDS011;51453;47.738;7.420;2023-05-20T04:59:28;8.18;;;4.50;;
64938;SDS011;51453;47.738;7.420;2023-05-20T05:01:53;9.95;;;4.78;;
64938;SDS011;51453;47.738;7.420;2023-05-20T05:04:19;8.82;;;4.22;;
64938;SDS011;51453;47.738;7.420;2023-05-20T05:06:46;12.07;;;4.05;;
64938;SDS011;51453;47.738;7.420;2023-05-20T05:09:12;9.82;;;4.90;;
64938;SDS011;51453;47.738;7.420;2023-05-20T05:11:38;9.60;;;4.30;;
64938;SDS011;51453;47.738;7.420;2023-05-20T05:14:04;7.57;;;4.30;;
64938;SDS011;51453;47.738;7.420;2023-05-20T05:16:29;6.32;;;4.13;;
64938;SDS011;51453;47.738;7.420;2023-05-20T05:18:55;7.65;;;4.20;;
64938;SDS011;51453;47.738;7.420;2023-05-20T05:21:20;7.40;;;4.22;;
64938;SDS011;51453;47.738;7.420;2023-05-20T05:23:46;7.57;;;4.10;;
64938;SDS011;51453;47.738;7.420;2023-05-20T05:26:12;8.13;;;3.90;;
64938;SDS011;51453;47.738;7.420;2023-05-20T05:28:40;6.60;;;3.75;;
64938;SDS011;51453;47.738;7.420;2023-05-20T05:31:07;5.95;;;4.18;;
64938;SDS011;51453;47.738;7.420;2023-05-20T05:33:33;6.65;;;3.88;;
64938;SDS011;51453;47.738;7.420;2023-05-20T05:35:59;5.55;;;4.07;;
64938;SDS011;51453;47.738;7.420;2023-05-20T05:38:26;8.10;;;4.03;;
64938;SDS011;51453;47.738;7.420;2023-05-20T05:40:52;6.95;;;3.55;;
64938;SDS011;51453;47.738;7.420;2023-05-20T05:43:17;5.20;;;3.28;;
64938;SDS011;51453;47.738;7.420;2023-05-20T05:45:43;5.68;;;3.25;;
64938;SDS011;51453;47.738;7.420;2023-05-20T05:48:09;5.45;;;3.38;;
64938;SDS011;51453;47.738;7.420;2023-05-20T05:50:35;4.07;;;2.97;;
64938;SDS011;51453;47.738;7.420;2023-05-20T05:53:00;4.85;;;3.20;;
64938;SDS011;51453;47.738;7.420;2023-05-20T05:55:26;3.30;;;2.72;;
64938;SDS011;51453;47.738;7.420;2023-05-20T05:57:52;3.92;;;3.42;;
64938;SDS011;51453;47.738;7.420;2023-05-20T06:00:17;3.70;;;2.70;;
64938;SDS011;51453;47.738;7.420;2023-05-20T06:02:43;5.30;;;2.95;;
64938;SDS011;51453;47.738;7.420;2023-05-20T06:05:09;5.22;;;3.00;;
64938;SDS011;51453;47.738;7.420;2023-05-20T06:07:35;6.38;;;3.08;;
64938;SDS011;51453;47.738;7.420;2023-05-20T06:10:00;5.60;;;2.90;;
64938;SDS011;51453;47.738;7.420;2023-05-20T06:12:26;5.15;;;3.00;;
64938;SDS011;51453;47.738;7.420;2023-05-20T06:14:52;6.40;;;3.20;;
64938;SDS011;51453;47.738;7.420;2023-05-20T06:17:17;5.40;;;3.00;;
64938;SDS011;51453;47.738;7.420;2023-05-20T06:19:43;7.35;;;2.92;;
64938;SDS011;51453;47.738;7.420;2023-05-20T06:22:08;5.22;;;2.90;;
64938;SDS011;51453;47.738;7.420;2023-05-20T06:24:34;5.38;;;3.20;;
64938;SDS011;51453;47.738;7.420;2023-05-20T06:27:00;5.78;;;3.08;;
64938;SDS011;51453;47.738;7.420;2023-05-20T06:29:27;4.85;;;3.05;;
64938;SDS011;51453;47.738;7.420;2023-05-20T06:31:53;4.72;;;2.90;;
64938;SDS011;51453;47.738;7.420;2023-05-20T06:34:19;6.97;;;3.40;;
64938;SDS011;51453;47.738;7.420;2023-05-20T06:36:44;6.72;;;3.33;;
64938;SDS011;51453;47.738;7.420;2023-05-20T06:39:10;5.22;;;3.40;;
64938;SDS011;51453;47.738;7.420;2023-05-20T06:41:39;6.30;;;3.78;;
64938;SDS011;51453;47.738;7.420;2023-05-20T06:44:05;5.80;;;3.80;;
64938;SDS011;51453;47.738;7.420;2023-05-20T06:46:32;7.22;;;3.85;;
64938;SDS011;51453;47.738;7.420;2023-05-20T06:48:58;7.57;;;3.22;;
64938;SDS011;51453;47.738;7.420;2023-05-20T06:51:23;5.93;;;3.50;;
64938;SDS011;51453;47.738;7.420;2023-05-20T06:53:49;5.32;;;3.35;;
64938;SDS011;51453;47.738;7.420;2023-05-20T06:56:15;5.53;;;3.70;;
64938;SDS011;51453;47.738;7.420;2023-05-20T06:58:41;17.15;;;3.67;;
64938;SDS011;51453;47.738;7.420;2023-05-20T07:01:06;7.97;;;3.70;;
64938;SDS011;51453;47.738;7.420;2023-05-20T07:03:32;9.85;;;3.78;;
64938;SDS011;51453;47.738;7.420;2023-05-20T07:05:58;9.70;;;3.75;;
64938;SDS011;51453;47.738;7.420;2023-05-20T07:08:23;5.57;;;3.75;;
64938;SDS011;51453;47.738;7.420;2023-05-20T07:10:49;7.82;;;3.60;;
64938;SDS011;51453;47.738;7.420;2023-05-20T07:13:15;6.72;;;3.95;;
64938;SDS011;51453;47.738;7.420;2023-05-20T09:35:12;6.65;;;4.50;;
64938;SDS011;51453;47.738;7.420;2023-05-20T09:37:38;8.30;;;4.38;;
64938;SDS011;51453;47.738;7.420;2023-05-20T09:40:08;6.47;;;4.75;;
64938;SDS011;51453;47.738;7.420;2023-05-20T09:43:10;6.63;;;5.10;;
64938;SDS011;51453;47.738;7.420;2023-05-20T09:45:35;5.95;;;4.63;;
64938;SDS011;51453;47.738;7.420;2023-05-20T09:48:02;7.28;;;4.30;;
64938;SDS011;51453;47.738;7.420;2023-05-20T09:50:29;6.13;;;4.18;;
64938;SDS011;51453;47.738;7.420;2023-05-20T09:52:56;6.50;;;4.45;;
64938;SDS011;51453;47.738;7.420;2023-05-20T09:55:27;5.20;;;4.70;;
64938;SDS011;51453;47.738;7.420;2023-05-20T09:57:54;7.45;;;5.05;;
64938;SDS011;51453;47.738;7.420;2023-05-20T10:00:20;5.00;;;4.50;;
64938;SDS011;51453;47.738;7.420;2023-05-20T10:05:16;8.57;;;4.72;;
64938;SDS011;51453;47.738;7.420;2023-05-20T10:20:57;6.75;;;4.57;;
64938;SDS011;51453;47.738;7.420;2023-05-20T10:23:23;6.47;;;4.57;;
64938;SDS011;51453;47.738;7.420;2023-05-20T10:25:52;5.57;;;4.60;;
64938;SDS011;51453;47.738;7.420;2023-05-20T10:30:58;8.27;;;4.65;;
64938;SDS011;51453;47.738;7.420;2023-05-20T10:33:27;5.63;;;4.53;;
64938;SDS011;51453;47.738;7.420;2023-05-20T10:35:57;5.03;;;4.38;;
64938;SDS011;51453;47.738;7.420;2023-05-20T10:38:23;9.48;;;5.10;;
64938;SDS011;51453;47.738;7.420;2023-05-20T10:40:50;6.95;;;4.80;;
64938;SDS011;51453;47.738;7.420;2023-05-20T10:43:26;5.10;;;4.60;;
64938;SDS011;51453;47.738;7.420;2023-05-20T10:45:56;6.13;;;4.80;;
64938;SDS011;51453;47.738;7.420;2023-05-20T10:48:27;6.95;;;4.45;;
64938;SDS011;51453;47.738;7.420;2023-05-20T10:50:58;6.25;;;5.25;;
64938;SDS011;51453;47.738;7.420;2023-05-20T10:53:28;5.07;;;4.57;;
64938;SDS011;51453;47.738;7.420;2023-05-20T10:55:55;5.72;;;4.60;;
64938;SDS011;51453;47.738;7.420;2023-05-20T10:58:22;6.55;;;5.07;;
64938;SDS011;51453;47.738;7.420;2023-05-20T11:00:51;7.70;;;5.63;;
64938;SDS011;51453;47.738;7.420;2023-05-20T11:03:19;5.97;;;4.78;;
64938;SDS011;51453;47.738;7.420;2023-05-20T11:05:46;6.03;;;4.80;;
64938;SDS011;51453;47.738;7.420;2023-05-20T11:08:12;6.45;;;4.65;;
64938;SDS011;51453;47.738;7.420;2023-05-20T11:10:38;7.40;;;4.88;;
64938;SDS011;51453;47.738;7.420;2023-05-20T11:13:06;8.20;;;4.70;;
64938;SDS011;51453;47.738;7.420;2023-05-20T11:15:33;7.38;;;4.60;;
64938;SDS011;51453;47.738;7.420;2023-05-20T11:18:01;5.25;;;4.70;;
64938;SDS011;51453;47.738;7.420;2023-05-20T11:20:28;6.53;;;4.60;;
64938;SDS011;51453;47.738;7.420;2023-05-20T11:22:55;6.80;;;4.68;;
64938;SDS011;51453;47.738;7.420;2023-05-20T11:25:21;4.85;;;4.25;;
64938;SDS011;51453;47.738;7.420;2023-05-20T11:27:50;6.47;;;4.28;;
64938;SDS011;51453;47.738;7.420;2023-05-20T11:30:18;5.22;;;4.07;;
64938;SDS011;51453;47.738;7.420;2023-05-20T11:32:57;5.25;;;4.00;;
64938;SDS011;51453;47.738;7.420;2023-05-20T11:35:25;6.47;;;3.93;;
64938;SDS011;51453;47.738;7.420;2023-05-20T11:38:14;5.70;;;4.70;;
64938;SDS011;51453;47.738;7.420;2023-05-20T11:40:43;6.65;;;4.28;;
64938;SDS011;51453;47.738;7.420;2023-05-20T11:43:10;4.50;;;3.78;;
64938;SDS011;51453;47.738;7.420;2023-05-20T11:45:40;4.45;;;4.05;;
64938;SDS011;51453;47.738;7.420;2023-05-20T11:48:07;5.93;;;4.45;;
64938;SDS011;51453;47.738;7.420;2023-05-20T11:50:37;7.20;;;4.47;;
64938;SDS011;51453;47.738;7.420;2023-05-20T11:53:08;7.32;;;4.53;;
64938;SDS011;51453;47.738;7.420;2023-05-20T11:58:20;3.75;;;3.45;;
64938;SDS011;51453;47.738;7.420;2023-05-20T12:00:47;5.22;;;3.65;;
64938;SDS011;51453;47.738;7.420;2023-05-20T12:03:13;6.10;;;4.25;;
64938;SDS011;51453;47.738;7.420;2023-05-20T12:05:40;7.00;;;3.95;;
64938;SDS011;51453;47.738;7.420;2023-05-20T12:08:06;4.10;;;3.70;;
64938;SDS011;51453;47.738;7.420;2023-05-20T12:10:32;4.45;;;3.67;;
64938;SDS011;51453;47.738;7.420;2023-05-20T12:12:57;6.10;;;4.00;;
64938;SDS011;51453;47.738;7.420;2023-05-20T12:15:24;4.35;;;3.53;;
64938;SDS011;51453;47.738;7.420;2023-05-20T12:17:52;5.05;;;4.03;;
64938;SDS011;51453;47.738;7.420;2023-05-20T12:20:20;4.43;;;3.88;;
64938;SDS011;51453;47.738;7.420;2023-05-20T12:22:47;6.05;;;4.00;;
64938;SDS011;51453;47.738;7.420;2023-05-20T12:25:13;3.92;;;3.63;;
64938;SDS011;51453;47.738;7.420;2023-05-20T12:27:41;5.97;;;3.75;;
64938;SDS011;51453;47.738;7.420;2023-05-20T12:30:11;4.30;;;3.90;;
64938;SDS011;51453;47.738;7.420;2023-05-20T12:32:42;4.00;;;3.60;;
64938;SDS011;51453;47.738;7.420;2023-05-20T12:35:09;4.30;;;3.50;;
64938;SDS011;51453;47.738;7.420;2023-05-20T12:37:36;7.68;;;3.67;;
64938;SDS011;51453;47.738;7.420;2023-05-20T12:40:02;4.90;;;4.40;;
64938;SDS011;51453;47.738;7.420;2023-05-20T12:42:38;7.18;;;3.90;;
64938;SDS011;51453;47.738;7.420;2023-05-20T12:45:05;4.53;;;3.80;;
64938;SDS011;51453;47.738;7.420;2023-05-20T12:47:33;4.75;;;3.83;;
64938;SDS011;51453;47.738;7.420;2023-05-20T12:49:59;6.10;;;4.10;;
64938;SDS011;51453;47.738;7.420;2023-05-20T12:52:25;5.20;;;4.10;;
64938;SDS011;51453;47.738;7.420;2023-05-20T12:54:52;4.63;;;4.22;;
64938;SDS011;51453;47.738;7.420;2023-05-20T12:57:18;4.32;;;3.92;;
64938;SDS011;51453;47.738;7.420;2023-05-20T12:59:44;5.53;;;4.35;;
64938;SDS011;51453;47.738;7.420;2023-05-20T13:02:10;5.32;;;4.50;;
64938;SDS011;51453;47.738;7.420;2023-05-20T13:04:36;6.38;;;4.47;;
64938;SDS011;51453;47.738;7.420;2023-05-20T13:07:02;3.97;;;3.55;;
64938;SDS011;51453;47.738;7.420;2023-05-20T13:09:27;4.25;;;3.85;;
64938;SDS011;51453;47.738;7.420;2023-05-20T13:11:53;7.38;;;3.85;;
64938;SDS011;51453;47.738;7.420;2023-05-20T13:14:19;5.68;;;4.30;;
64938;SDS011;51453;47.738;7.420;2023-05-20T13:16:45;6.25;;;4.10;;
64938;SDS011;51453;47.738;7.420;2023-05-20T13:19:18;5.63;;;4.00;;
64938;SDS011;51453;47.738;7.420;2023-05-20T13:21:48;5.30;;;3.72;;
64938;SDS011;51453;47.738;7.420;2023-05-20T13:24:14;4.45;;;4.00;;
64938;SDS011;51453;47.738;7.420;2023-05-20T13:26:40;4.70;;;4.07;;
64938;SDS011;51453;47.738;7.420;2023-05-20T13:29:06;7.22;;;4.55;;
64938;SDS011;51453;47.738;7.420;2023-05-20T13:31:32;4.60;;;4.00;;
64938;SDS011;51453;47.738;7.420;2023-05-20T13:33:58;4.65;;;4.25;;
64938;SDS011;51453;47.738;7.420;2023-05-20T13:36:24;5.93;;;3.90;;
64938;SDS011;51453;47.738;7.420;2023-05-20T13:38:51;4.40;;;4.00;;
64938;SDS011;51453;47.738;7.420;2023-05-20T13:41:16;6.18;;;4.15;;
64938;SDS011;51453;47.738;7.420;2023-05-20T13:43:42;7.13;;;4.65;;
64938;SDS011;51453;47.738;7.420;2023-05-20T13:46:08;4.97;;;3.90;;
64938;SDS011;51453;47.738;7.420;2023-05-20T13:48:33;5.57;;;3.95;;
64938;SDS011;51453;47.738;7.420;2023-05-20T13:50:59;7.78;;;4.40;;
64938;SDS011;51453;47.738;7.420;2023-05-20T13:53:25;5.57;;;3.88;;
64938;SDS011;51453;47.738;7.420;2023-05-20T13:55:51;8.20;;;3.70;;
64938;SDS011;51453;47.738;7.420;2023-05-20T13:58:17;4.65;;;3.90;;
64938;SDS011;51453;47.738;7.420;2023-05-20T14:00:43;5.78;;;3.80;;
64938;SDS011;51453;47.738;7.420;2023-05-20T14:03:09;4.90;;;3.92;;
64938;SDS011;51453;47.738;7.420;2023-05-20T14:05:35;5.60;;;4.00;;
64938;SDS011;51453;47.738;7.420;2023-05-20T14:08:01;6.50;;;4.15;;
64938;SDS011;51453;47.738;7.420;2023-05-20T14:10:26;4.70;;;4.20;;
64938;SDS011;51453;47.738;7.420;2023-05-20T14:12:52;5.93;;;3.78;;
64938;SDS011;51453;47.738;7.420;2023-05-20T14:15:19;5.97;;;4.15;;
64938;SDS011;51453;47.738;7.420;2023-05-20T14:17:45;5.13;;;3.90;;
64938;SDS011;51453;47.738;7.420;2023-05-20T14:20:11;7.15;;;4.38;;
64938;SDS011;51453;47.738;7.420;2023-05-20T14:22:37;6.35;;;4.40;;
64938;SDS011;51453;47.738;7.420;2023-05-20T14:25:03;6.13;;;4.43;;
64938;SDS011;51453;47.738;7.420;2023-05-20T14:27:29;6.57;;;4.10;;
64938;SDS011;51453;47.738;7.420;2023-05-20T14:29:54;7.32;;;4.65;;
64938;SDS011;51453;47.738;7.420;2023-05-20T14:32:20;4.38;;;3.97;;
64938;SDS011;51453;47.738;7.420;2023-05-20T14:34:46;5.22;;;4.30;;
64938;SDS011;51453;47.738;7.420;2023-05-20T14:37:12;4.15;;;3.80;;
64938;SDS011;51453;47.738;7.420;2023-05-20T14:39:39;6.90;;;5.60;;
64938;SDS011;51453;47.738;7.420;2023-05-20T14:42:05;7.65;;;4.70;;
64938;SDS011;51453;47.738;7.420;2023-05-20T14:44:31;6.05;;;4.57;;
64938;SDS011;51453;47.738;7.420;2023-05-20T14:46:56;5.70;;;4.68;;
64938;SDS011;51453;47.738;7.420;2023-05-20T14:49:22;6.03;;;4.20;;
64938;SDS011;51453;47.738;7.420;2023-05-20T14:51:48;8.27;;;4.43;;
64938;SDS011;51453;47.738;7.420;2023-05-20T14:54:13;6.15;;;4.00;;
64938;SDS011;51453;47.738;7.420;2023-05-20T14:56:40;5.93;;;4.30;;
64938;SDS011;51453;47.738;7.420;2023-05-20T14:59:06;4.60;;;4.15;;
64938;SDS011;51453;47.738;7.420;2023-05-20T15:01:32;4.25;;;3.72;;
64938;SDS011;51453;47.738;7.420;2023-05-20T15:03:58;5.00;;;4.50;;
64938;SDS011;51453;47.738;7.420;2023-05-20T15:06:24;5.03;;;4.03;;
64938;SDS011;51453;47.738;7.420;2023-05-20T15:08:50;5.35;;;4.22;;
64938;SDS011;51453;47.738;7.420;2023-05-20T15:11:16;5.00;;;4.28;;
64938;SDS011;51453;47.738;7.420;2023-05-20T15:13:42;5.32;;;4.10;;
64938;SDS011;51453;47.738;7.420;2023-05-20T15:16:10;4.40;;;4.00;;
64938;SDS011;51453;47.738;7.420;2023-05-20T15:18:36;4.50;;;3.88;;
64938;SDS011;51453;47.738;7.420;2023-05-20T15:21:02;6.40;;;4.13;;
64938;SDS011;51453;47.738;7.420;2023-05-20T15:23:28;5.43;;;4.15;;
64938;SDS011;51453;47.738;7.420;2023-05-20T15:25:54;4.45;;;4.05;;
64938;SDS011;51453;47.738;7.420;2023-05-20T15:28:22;6.35;;;4.70;;
64938;SDS011;51453;47.738;7.420;2023-05-20T15:30:50;5.70;;;4.03;;
64938;SDS011;51453;47.738;7.420;2023-05-20T15:33:18;5.00;;;4.00;;
64938;SDS011;51453;47.738;7.420;2023-05-20T15:35:44;4.13;;;3.72;;
64938;SDS011;51453;47.738;7.420;2023-05-20T15:38:11;4.40;;;3.97;;
64938;SDS011;51453;47.738;7.420;2023-05-20T15:40:37;4.30;;;3.90;;
64938;SDS011;51453;47.738;7.420;2023-05-20T15:43:03;4.20;;;3.80;;
64938;SDS011;51453;47.738;7.420;2023-05-20T15:45:30;5.20;;;4.25;;
64938;SDS011;51453;47.738;7.420;2023-05-20T15:47:56;4.32;;;3.75;;
64938;SDS011;51453;47.738;7.420;2023-05-20T15:50:21;4.40;;;4.00;;
64938;SDS011;51453;47.738;7.420;2023-05-20T15:52:48;4.88;;;3.70;;
64938;SDS011;51453;47.738;7.420;2023-05-20T15:55:15;4.10;;;3.80;;
64938;SDS011;51453;47.738;7.420;2023-05-20T15:57:41;4.35;;;3.70;;
64938;SDS011;51453;47.738;7.420;2023-05-20T16:00:06;7.60;;;4.30;;
64938;SDS011;51453;47.738;7.420;2023-05-20T16:02:34;4.45;;;4.00;;
64938;SDS011;51453;47.738;7.420;2023-05-20T16:05:00;6.00;;;3.63;;
64938;SDS011;51453;47.738;7.420;2023-05-20T16:07:26;4.70;;;3.92;;
64938;SDS011;51453;47.738;7.420;2023-05-20T16:09:52;4.38;;;3.47;;
64938;SDS011;51453;47.738;7.420;2023-05-20T16:12:18;5.05;;;3.80;;
64938;SDS011;51453;47.738;7.420;2023-05-20T16:14:44;4.03;;;3.63;;
64938;SDS011;51453;47.738;7.420;2023-05-20T16:17:10;5.53;;;3.70;;
64938;SDS011;51453;47.738;7.420;2023-05-20T16:19:36;5.85;;;3.55;;
64938;SDS011;51453;47.738;7.420;2023-05-20T16:22:02;7.55;;;3.83;;
64938;SDS011;51453;47.738;7.420;2023-05-20T16:24:27;6.38;;;4.10;;
64938;SDS011;51453;47.738;7.420;2023-05-20T16:26:53;5.80;;;4.28;;
64938;SDS011;51453;47.738;7.420;2023-05-20T16:29:19;5.63;;;3.80;;
64938;SDS011;51453;47.738;7.420;2023-05-20T16:31:45;4.25;;;3.83;;
64938;SDS011;51453;47.738;7.420;2023-05-20T16:34:11;4.03;;;3.55;;
64938;SDS011;51453;47.738;7.420;2023-05-20T16:36:38;3.58;;;3.28;;
64938;SDS011;51453;47.738;7.420;2023-05-20T16:39:04;5.07;;;3.88;;
64938;SDS011;51453;47.738;7.420;2023-05-20T16:41:30;5.82;;;3.63;;
64938;SDS011;51453;47.738;7.420;2023-05-20T16:43:55;4.32;;;3.60;;
64938;SDS011;51453;47.738;7.420;2023-05-20T16:46:21;4.57;;;3.90;;
64938;SDS011;51453;47.738;7.420;2023-05-20T16:48:47;5.70;;;3.97;;
64938;SDS011;51453;47.738;7.420;2023-05-20T16:51:13;6.32;;;4.85;;
64938;SDS011;51453;47.738;7.420;2023-05-20T16:53:38;6.18;;;5.10;;
64938;SDS011;51453;47.738;7.420;2023-05-20T16:56:04;10.73;;;5.40;;
64938;SDS011;51453;47.738;7.420;2023-05-20T16:58:30;12.52;;;5.20;;
64938;SDS011;51453;47.738;7.420;2023-05-20T17:00:56;6.18;;;4.88;;
64938;SDS011;51453;47.738;7.420;2023-05-20T17:03:22;7.22;;;5.35;;
64938;SDS011;51453;47.738;7.420;2023-05-20T17:05:47;5.72;;;5.13;;
64938;SDS011;51453;47.738;7.420;2023-05-20T17:08:13;10.90;;;8.80;;
64938;SDS011;51453;47.738;7.420;2023-05-20T17:10:39;33.83;;;24.67;;
64938;SDS011;51453;47.738;7.420;2023-05-20T17:13:05;16.15;;;12.35;;
64938;SDS011;51453;47.738;7.420;2023-05-20T17:15:30;7.88;;;6.05;;
64938;SDS011;51453;47.738;7.420;2023-05-20T17:17:56;7.28;;;6.00;;
64938;SDS011;51453;47.738;7.420;2023-05-20T17:20:22;7.63;;;6.35;;
64938;SDS011;51453;47.738;7.420;2023-05-20T17:22:48;9.27;;;6.65;;